Time;durP1;ratioP1;P1;durP2;ratioP2;P2;SDS_P1;SDS_P2;PMS_P1;PMS_P2;Temp;Humidity;BMP_temperature;BMP_pressure;BME280_temperature;BME280_humidity;BME280_pressure;Samples;Min_cycle;Max_cycle;Signal;HPM_P1;HPM_P2
2022/07/11 00:02:21;;;;;;;1.67;1.20;;;19.30;80.10;;;19.70;53.66;94954.03;5054266;28;20544;-62
2022/07/11 00:04:48;;;;;;;2.10;1.47;;;19.30;80.00;;;19.66;53.95;94958.09;5057324;28;20451;-59
2022/07/11 00:07:16;;;;;;;1.50;1.33;;;19.20;79.90;;;19.65;53.39;94959.09;5055484;28;20466;-63
2022/07/11 00:09:45;;;;;;;2.37;1.00;;;19.20;80.00;;;19.66;53.78;94955.41;5057900;28;20456;-63
2022/07/11 00:12:12;;;;;;;2.30;1.20;;;19.20;79.90;;;19.65;53.99;94953.75;5051438;28;20543;-63
2022/07/11 00:14:40;;;;;;;1.67;1.10;;;19.20;79.90;;;19.64;53.99;94954.78;5056538;28;20511;-64
2022/07/11 00:17:08;;;;;;;3.13;2.30;;;19.20;79.90;;;19.64;53.41;94960.13;5057466;28;20462;-62
2022/07/11 00:19:36;;;;;;;1.67;1.50;;;19.20;80.00;;;19.63;53.98;94958.47;5057566;28;20479;-64
2022/07/11 00:22:03;;;;;;;6.90;1.20;;;19.20;79.90;;;19.62;53.76;94964.81;5053686;28;20562;-62
2022/07/11 00:24:31;;;;;;;4.57;1.33;;;19.20;79.90;;;19.61;53.81;94967.69;5055709;28;20976;-58
2022/07/11 00:26:59;;;;;;;1.73;1.50;;;19.20;80.00;;;19.61;53.56;94971.19;5052385;28;21010;-62
2022/07/11 00:29:28;;;;;;;2.57;1.20;;;19.20;80.00;;;19.61;53.62;94968.53;5054663;28;20677;-63
2022/07/11 00:31:56;;;;;;;4.00;1.20;;;19.20;79.60;;;19.59;53.73;94973.22;5053069;28;20470;-60
2022/07/11 00:34:23;;;;;;;2.63;1.00;;;19.20;79.90;;;19.61;53.45;94975.69;5053093;28;20501;-58
2022/07/11 00:36:51;;;;;;;1.77;1.00;;;19.20;80.00;;;19.63;53.22;94981.66;5056546;28;20468;-58
2022/07/11 00:39:18;;;;;;;6.17;1.37;;;19.20;79.60;;;19.61;53.16;94981.88;5051127;28;20967;-61
2022/07/11 00:41:45;;;;;;;1.83;1.37;;;19.20;79.50;;;19.63;53.30;94981.66;5047861;28;20476;-58
2022/07/11 00:44:14;;;;;;;1.37;1.27;;;19.20;79.60;;;19.62;53.13;94983.50;5048018;28;20447;-62
2022/07/11 00:46:42;;;;;;;1.10;0.90;;;19.20;79.50;;;19.61;53.24;94981.88;5055355;28;20555;-62
2022/07/11 00:49:09;;;;;;;2.80;1.10;;;19.20;79.70;;;19.62;53.77;94972.81;5054467;28;20931;-63
2022/07/11 00:51:36;;;;;;;1.90;1.20;;;19.20;79.70;;;19.62;53.62;94980.81;5047131;28;20553;-62
2022/07/11 00:54:04;;;;;;;1.40;1.10;;;19.20;79.80;;;19.62;53.27;94978.16;5050728;28;20594;-57
2022/07/11 00:56:31;;;;;;;1.07;0.97;;;19.20;79.80;;;19.60;53.08;94980.19;5051633;28;20467;-62
2022/07/11 00:58:59;;;;;;;4.00;1.00;;;19.10;80.20;;;19.54;53.67;94983.66;5053305;28;20467;-62
2022/07/11 01:01:28;;;;;;;1.77;1.30;;;19.10;79.50;;;19.50;54.05;94977.03;5056634;28;20550;-58
2022/07/11 01:03:55;;;;;;;5.87;1.20;;;19.10;80.20;;;19.49;54.04;94972.72;5054922;28;20559;-59
2022/07/11 01:06:22;;;;;;;3.77;1.50;;;19.10;80.10;;;19.46;53.61;94967.78;5055159;28;20478;-58
2022/07/11 01:08:50;;;;;;;2.47;1.67;;;19.00;79.60;;;19.42;53.49;94974.50;5057988;28;20553;-61
2022/07/11 01:11:18;;;;;;;6.63;2.00;;;19.00;80.00;;;19.38;53.49;94970.56;5053911;28;20483;-63
2022/07/11 01:13:46;;;;;;;1.30;1.20;;;19.00;80.20;;;19.36;53.56;94978.75;5056378;28;20488;-59
2022/07/11 01:16:14;;;;;;;1.73;1.10;;;18.90;79.90;;;19.33;53.77;94972.00;5055055;28;20466;-58
2022/07/11 01:18:45;;;;;;;9.33;1.47;;;18.90;80.00;;;19.32;53.84;94965.00;5056229;28;20454;-63
2022/07/11 01:21:22;;;;;;;1.87;1.40;;;18.90;80.00;;;19.30;53.85;94975.03;5056045;28;20482;-59
2022/07/11 01:23:51;;;;;;;1.53;1.30;;;18.90;80.10;;;19.28;53.98;94982.38;5049965;28;20514;-62
2022/07/11 01:26:19;;;;;;;2.80;1.80;;;18.90;80.00;;;19.27;53.37;94985.25;5054626;28;20825;-58
2022/07/11 01:28:46;;;;;;;1.77;1.00;;;18.90;80.00;;;19.25;53.94;94992.63;5055839;28;20452;-58
2022/07/11 01:31:13;;;;;;;1.13;1.03;;;18.80;79.90;;;19.20;53.58;94979.84;5052359;28;21027;-59
2022/07/11 01:33:41;;;;;;;2.40;1.20;;;18.80;79.80;;;19.18;53.90;94984.56;5049683;28;20494;-63
2022/07/11 01:36:08;;;;;;;6.63;1.37;;;18.80;80.20;;;19.15;54.09;94977.75;5058786;28;20478;-58
2022/07/11 01:38:36;;;;;;;1.47;1.33;;;18.70;80.20;;;19.14;53.63;94980.63;5047345;28;20451;-63
2022/07/11 01:41:05;;;;;;;1.73;1.33;;;18.70;80.30;;;19.12;53.94;94977.31;5050853;28;20487;-63
2022/07/11 01:43:32;;;;;;;4.40;1.47;;;18.70;80.60;;;19.13;54.16;94978.94;5055846;28;20454;-60
2022/07/11 01:45:59;;;;;;;1.37;1.27;;;18.70;80.60;;;19.13;53.68;94978.94;5050955;28;20456;-57
2022/07/11 01:48:26;;;;;;;1.90;1.70;;;18.70;80.60;;;19.15;53.64;94979.59;5050076;28;20895;-63
2022/07/11 01:50:54;;;;;;;6.60;1.73;;;18.70;80.60;;;19.14;53.87;94978.75;5048507;28;20980;-63
2022/07/11 01:53:21;;;;;;;1.50;1.10;;;18.70;80.60;;;19.15;53.82;94983.09;5049412;28;20488;-58
2022/07/11 01:55:49;;;;;;;1.20;1.10;;;18.70;80.60;;;19.14;53.76;94984.09;5054831;28;20482;-58
2022/07/11 01:58:18;;;;;;;1.40;1.30;;;18.70;80.60;;;19.12;54.09;94988.00;5058203;28;20447;-63
2022/07/11 02:00:45;;;;;;;4.90;1.80;;;18.70;80.60;;;19.09;54.22;94983.03;5054952;28;20525;-62
2022/07/11 02:03:12;;;;;;;2.37;1.20;;;18.70;80.40;;;19.05;53.62;94989.75;5055234;28;20459;-62
2022/07/11 02:05:40;;;;;;;1.10;1.00;;;18.60;80.40;;;19.02;54.02;94992.78;5057198;28;20480;-63
2022/07/11 02:08:14;;;;;;;1.33;1.17;;;18.60;80.40;;;18.97;54.40;94991.50;5056505;28;20539;-57
2022/07/11 02:10:43;;;;;;;1.57;1.27;;;18.60;80.70;;;18.93;54.28;94992.91;5059431;28;20470;-63
2022/07/11 02:13:10;;;;;;;1.50;1.40;;;18.60;80.90;;;18.89;54.04;94994.31;5058191;28;20996;-58
2022/07/11 02:15:40;;;;;;;5.43;1.30;;;18.50;81.00;;;18.85;54.52;94998.34;5060315;28;20462;-57
2022/07/11 02:18:07;;;;;;;2.43;1.53;;;18.50;81.20;;;18.83;54.09;95002.19;5060774;28;20451;-59
2022/07/11 02:20:34;;;;;;;1.43;1.20;;;18.40;81.10;;;18.78;54.67;95008.91;5055008;28;20471;-59
2022/07/11 02:23:03;;;;;;;1.53;0.90;;;18.40;81.30;;;18.75;54.85;95009.28;5059022;28;20516;-58
2022/07/11 02:25:30;;;;;;;2.47;1.73;;;18.40;81.30;;;18.70;54.88;95005.50;5059089;28;21079;-65
2022/07/11 02:27:58;;;;;;;3.07;1.57;;;18.30;81.70;;;18.67;54.55;95006.72;5057214;28;20512;-63
2022/07/11 02:30:25;;;;;;;1.27;1.17;;;18.30;81.70;;;18.62;54.54;95011.78;5054417;28;20569;-58
2022/07/11 02:32:54;;;;;;;1.87;1.30;;;18.20;81.60;;;18.59;54.50;95012.16;5061371;28;20458;-59
2022/07/11 02:35:21;;;;;;;1.40;1.07;;;18.20;81.90;;;18.56;54.81;95016.03;5052349;28;20498;-59
2022/07/11 02:37:49;;;;;;;1.93;1.17;;;18.10;82.10;;;18.52;54.50;95020.06;5055762;28;20555;-63
2022/07/11 02:40:17;;;;;;;1.23;1.13;;;18.10;82.00;;;18.50;54.84;95015.91;5049658;28;20467;-59
2022/07/11 02:42:44;;;;;;;1.47;1.37;;;18.10;83.40;;;18.50;55.02;95015.91;5052931;28;20455;-61
2022/07/11 02:45:11;;;;;;;1.30;1.20;;;18.10;82.80;;;18.50;55.26;95022.09;5051904;28;20448;-59
2022/07/11 02:47:39;;;;;;;1.77;1.17;;;18.10;82.80;;;18.51;55.21;95018.41;5064017;28;20447;-59
2022/07/11 02:50:11;;;;;;;4.07;1.43;;;18.10;82.90;;;18.51;55.35;95015.75;5051948;28;20463;-57
2022/07/11 02:52:39;;;;;;;3.43;1.30;;;18.10;83.10;;;18.52;55.11;95020.06;5051593;28;20447;-58
2022/07/11 02:55:09;;;;;;;1.40;1.17;;;18.10;83.00;;;18.54;55.19;95020.69;5055875;28;20853;-62
2022/07/11 02:57:36;;;;;;;1.70;1.60;;;18.10;82.90;;;18.56;55.00;95015.19;5052430;28;20451;-61
2022/07/11 03:00:04;;;;;;;1.30;1.20;;;18.10;83.20;;;18.58;55.48;95018.50;5052206;28;20440;-59
2022/07/11 03:02:32;;;;;;;2.90;1.43;;;18.20;83.20;;;18.58;55.24;95019.31;5054580;28;20455;-63
2022/07/11 03:04:59;;;;;;;2.70;1.40;;;18.10;82.90;;;18.57;54.82;95024.84;5058624;28;20505;-57
2022/07/11 03:07:28;;;;;;;4.07;1.13;;;18.10;82.60;;;18.55;55.18;95025.03;5051372;28;20504;-63
2022/07/11 03:09:55;;;;;;;4.20;2.00;;;18.10;82.70;;;18.52;54.64;95029.91;5056404;28;20466;-58
2022/07/11 03:12:23;;;;;;;1.50;1.40;;;18.10;82.80;;;18.48;55.01;95024.09;5055219;28;20446;-58
2022/07/11 03:14:50;;;;;;;1.70;1.30;;;18.10;82.60;;;18.45;54.63;95027.13;5057686;28;20499;-60
2022/07/11 03:17:18;;;;;;;1.47;1.37;;;18.00;82.50;;;18.43;54.93;95023.84;5057454;28;20471;-64
2022/07/11 03:19:46;;;;;;;1.63;1.53;;;18.00;82.60;;;18.43;55.34;95021.19;5060110;28;20837;-63
2022/07/11 03:22:14;;;;;;;13.37;1.90;;;18.00;82.80;;;18.44;55.18;95028.97;5055909;28;20472;-59
2022/07/11 03:24:42;;;;;;;1.50;1.33;;;18.00;82.70;;;18.42;54.63;95031.00;5059184;28;20451;-58
2022/07/11 03:27:10;;;;;;;1.73;1.30;;;18.00;82.50;;;18.42;54.97;95041.66;5057979;28;20514;-59
2022/07/11 03:29:37;;;;;;;1.37;1.20;;;18.00;82.60;;;18.44;54.71;95044.16;5055227;28;20474;-62
2022/07/11 03:32:06;;;;;;;1.23;1.13;;;18.00;82.70;;;18.43;54.55;95039.81;5055461;28;20585;-63
2022/07/11 03:34:33;;;;;;;2.60;1.10;;;18.00;82.60;;;18.43;55.10;95045.16;5053737;28;20894;-63
2022/07/11 03:37:00;;;;;;;1.30;1.20;;;18.00;82.70;;;18.46;55.09;95048.25;5053058;28;20478;-58
2022/07/11 03:39:28;;;;;;;1.57;1.20;;;18.00;83.00;;;18.48;54.93;95042.75;5054649;28;20458;-63
2022/07/11 03:41:57;;;;;;;5.23;1.97;;;18.10;82.60;;;18.48;54.71;95048.06;5056178;28;20506;-58
2022/07/11 03:44:24;;;;;;;5.93;1.73;;;18.10;82.90;;;18.50;55.14;95045.22;5052216;28;20934;-62
2022/07/11 03:46:51;;;;;;;1.50;1.30;;;18.10;82.80;;;18.53;55.15;95053.69;5057636;28;20494;-59
2022/07/11 03:49:19;;;;;;;2.70;1.50;;;18.10;83.10;;;18.58;54.90;95053.97;5054960;28;20459;-64
2022/07/11 03:51:46;;;;;;;2.70;1.60;;;18.20;83.20;;;18.64;54.49;95049.72;5047441;28;20479;-59
2022/07/11 03:54:13;;;;;;;2.17;1.70;;;18.20;83.00;;;18.65;54.98;95062.03;5050853;28;20499;-63
2022/07/11 03:56:41;;;;;;;2.33;1.40;;;18.20;83.20;;;18.66;54.66;95062.88;5051715;28;20480;-60
2022/07/11 03:59:10;;;;;;;1.97;1.43;;;18.20;82.70;;;18.66;54.47;95065.53;5054895;28;20455;-64
2022/07/11 04:01:37;;;;;;;2.07;1.50;;;18.20;82.70;;;18.66;55.05;95070.88;5055950;28;21064;-60
2022/07/11 04:04:08;;;;;;;2.70;1.43;;;18.20;83.30;;;18.69;54.93;95073.16;5055759;28;20455;-59
2022/07/11 04:06:36;;;;;;;2.60;1.60;;;18.20;83.30;;;18.71;55.18;95077.28;5055542;28;20476;-63
2022/07/11 04:09:03;;;;;;;3.30;1.70;;;18.30;83.40;;;18.77;55.21;95086.38;5055690;28;20948;-63
2022/07/11 04:11:31;;;;;;;1.60;1.50;;;18.30;83.40;;;18.81;55.63;95077.81;5060184;28;20466;-63
2022/07/11 04:13:58;;;;;;;2.47;2.23;;;18.40;84.50;;;18.91;54.99;95080.22;5050668;28;20470;-63
2022/07/11 04:16:27;;;;;;;1.93;1.60;;;18.40;84.50;;;18.98;55.72;95086.47;5053890;28;20838;-62
2022/07/11 04:18:55;;;;;;;1.43;1.33;;;18.50;84.60;;;19.02;54.91;95094.91;5058838;28;20457;-59
2022/07/11 04:21:22;;;;;;;2.83;1.20;;;18.60;84.60;;;19.02;55.37;95092.25;5058267;28;20479;-58
2022/07/11 04:23:49;;;;;;;2.07;1.83;;;18.60;84.20;;;18.97;54.81;95098.13;5056469;28;20454;-63
2022/07/11 04:26:17;;;;;;;3.13;1.80;;;18.60;84.20;;;18.93;55.04;95096.88;5055574;28;20475;-57
2022/07/11 04:28:44;;;;;;;1.73;1.63;;;18.50;84.30;;;18.90;54.89;95101.72;5056430;28;20451;-58
2022/07/11 04:31:11;;;;;;;3.40;1.70;;;18.50;84.20;;;18.85;55.66;95099.63;5051987;28;20478;-58
2022/07/11 04:33:40;;;;;;;1.30;1.20;;;18.50;84.60;;;18.83;55.27;95095.47;5048472;28;20459;-57
2022/07/11 04:36:08;;;;;;;6.57;1.67;;;18.40;84.50;;;18.80;55.58;95092.16;5049912;28;20495;-63
2022/07/11 04:38:35;;;;;;;3.10;1.60;;;18.40;84.50;;;18.77;55.71;95097.03;5050355;28;20459;-61
2022/07/11 04:41:03;;;;;;;1.70;1.60;;;18.40;85.00;;;18.73;55.89;95093.91;5058163;28;20482;-64
2022/07/11 04:43:30;;;;;;;2.27;1.37;;;18.30;84.90;;;18.72;56.32;95096.78;5053648;28;20460;-61
2022/07/11 04:45:58;;;;;;;2.23;2.03;;;18.30;85.40;;;18.72;56.68;95092.25;5051792;28;21085;-58
2022/07/11 04:48:25;;;;;;;1.90;1.80;;;18.30;87.10;;;18.73;55.83;95085.09;5057754;28;20497;-63
2022/07/11 04:50:55;;;;;;;1.80;1.70;;;18.30;86.00;;;18.75;56.69;95091.88;5056200;28;20573;-63
2022/07/11 04:53:22;;;;;;;8.80;1.50;;;18.30;86.60;;;18.77;56.50;95089.03;5056942;28;20837;-58
2022/07/11 04:55:49;;;;;;;7.60;2.33;;;18.40;86.70;;;18.79;56.13;95095.00;5053210;28;20503;-59
2022/07/11 04:58:17;;;;;;;3.53;1.83;;;18.40;86.60;;;18.81;56.33;95090.34;5052653;28;20682;-62
2022/07/11 05:00:44;;;;;;;1.50;1.40;;;18.40;86.70;;;18.84;56.13;95089.13;5052133;28;20489;-63
2022/07/11 05:03:12;;;;;;;1.63;1.30;;;18.40;86.60;;;18.86;56.13;95090.63;5047730;28;20903;-63
2022/07/11 05:05:39;;;;;;;2.60;2.40;;;18.50;86.60;;;18.90;56.01;95091.91;5050672;28;20475;-63
2022/07/11 05:08:08;;;;;;;5.70;1.83;;;18.50;86.70;;;18.92;56.33;95095.22;5045721;28;20463;-58
2022/07/11 05:10:36;;;;;;;1.67;1.57;;;18.50;86.60;;;18.95;56.21;95102.03;5048279;28;20471;-57
2022/07/11 05:13:03;;;;;;;3.93;1.63;;;18.50;86.70;;;18.97;56.71;95103.47;5052749;28;20451;-58
2022/07/11 05:15:31;;;;;;;2.07;1.97;;;18.60;87.20;;;19.02;56.27;95104.75;5053488;28;20499;-58
2022/07/11 05:17:58;;;;;;;1.60;1.50;;;18.60;88.00;;;19.05;56.06;95104.38;5054346;28;20451;-64
2022/07/11 05:20:25;;;;;;;12.23;2.67;;;18.60;87.20;;;19.11;56.71;95106.31;5055138;28;20474;-63
2022/07/11 05:22:53;;;;;;;3.47;1.80;;;18.70;87.70;;;19.21;56.18;95106.84;5055471;28;20448;-57
2022/07/11 05:25:22;;;;;;;2.63;1.67;;;18.80;87.60;;;19.34;56.40;95109.66;5055847;28;20474;-58
2022/07/11 05:27:49;;;;;;;4.97;2.30;;;18.90;88.10;;;19.49;55.85;95112.28;5053770;28;20963;-59
2022/07/11 05:30:16;;;;;;;3.57;1.77;;;19.00;87.60;;;19.66;56.15;95112.03;5058136;28;20967;-63
2022/07/11 05:32:44;;;;;;;1.53;1.43;;;19.20;87.20;;;19.83;54.53;95115.28;5062653;28;20454;-58
2022/07/11 05:35:11;;;;;;;2.23;1.43;;;19.30;84.70;;;20.00;54.25;95119.38;5063996;28;20506;-58
2022/07/11 05:37:38;;;;;;;2.43;2.00;;;19.50;84.20;;;20.16;52.49;95115.59;5053233;28;20452;-57
2022/07/11 05:40:07;;;;;;;8.97;1.10;;;19.60;81.10;;;20.31;51.96;95118.19;5053038;28;20459;-64
2022/07/11 05:42:36;;;;;;;4.53;1.43;;;19.80;80.70;;;20.48;50.55;95115.19;5055032;28;20462;-58
2022/07/11 05:45:04;;;;;;;2.03;1.00;;;19.90;77.40;;;20.60;50.23;95121.66;5060519;28;20456;-63
2022/07/11 05:47:31;;;;;;;8.10;1.67;;;20.00;76.70;;;20.74;49.56;95128.78;5060632;28;20454;-64
2022/07/11 05:49:58;;;;;;;1.77;1.27;;;20.20;75.20;;;20.91;49.23;95136.47;5058553;28;20932;-64
2022/07/11 05:52:26;;;;;;;4.27;1.20;;;20.30;73.70;;;21.06;47.60;95125.63;5060908;28;20472;-63
2022/07/11 05:54:54;;;;;;;1.10;0.97;;;20.50;71.50;;;21.21;47.48;95136.19;5059955;28;20491;-59
2022/07/11 05:57:21;;;;;;;1.20;0.93;;;20.60;70.40;;;21.34;47.13;95130.88;5057235;28;20475;-59
2022/07/11 05:59:50;;;;;;;6.13;1.60;;;20.80;69.70;;;21.52;46.73;95137.56;5056234;28;20461;-66
2022/07/11 06:02:18;;;;;;;2.43;1.30;;;20.90;69.50;;;21.69;45.94;95141.53;5054566;28;20483;-58
2022/07/11 06:04:45;;;;;;;2.10;1.43;;;21.10;67.80;;;21.82;44.70;95136.19;5053402;28;20495;-59
2022/07/11 06:08:40;;;;;;;5.97;1.10;;;21.20;65.70;;;21.91;44.28;95131.47;5057565;28;20939;-63
2022/07/11 06:09:59;;;;;;;3.73;1.03;;;21.30;64.20;;;22.01;43.36;95126.56;5061294;28;20445;-62
2022/07/11 06:12:27;;;;;;;7.93;0.90;;;21.40;62.60;;;22.15;44.57;95132.75;5059176;28;20797;-58
2022/07/11 06:14:57;;;;;;;1.40;1.20;;;21.60;64.70;;;22.31;44.33;95144.94;5056497;28;20494;-63
2022/07/11 06:17:24;;;;;;;2.23;1.50;;;21.70;65.30;;;22.46;44.03;95136.66;5060434;28;21002;-63
2022/07/11 06:19:51;;;;;;;3.23;1.10;;;21.80;64.50;;;22.63;43.85;95136.25;5058220;28;20827;-58
2022/07/11 06:22:19;;;;;;;3.53;1.20;;;22.00;63.30;;;22.70;42.83;95139.75;5060870;28;20478;-58
2022/07/11 06:24:46;;;;;;;2.00;0.80;;;22.10;60.90;;;22.79;41.78;95132.28;5058190;28;20451;-59
2022/07/11 06:27:13;;;;;;;1.87;0.70;;;22.20;59.40;;;22.87;40.34;95138.25;5055512;28;20467;-58
2022/07/11 06:29:41;;;;;;;8.37;1.07;;;22.20;57.90;;;22.94;41.37;95137.44;5059228;28;20509;-58
2022/07/11 06:32:10;;;;;;;1.93;1.20;;;22.30;59.00;;;23.05;42.06;95132.25;5052108;28;20471;-58
2022/07/11 06:34:37;;;;;;;4.53;0.97;;;22.40;59.40;;;23.19;41.40;95127.69;5059416;28;20897;-63
2022/07/11 06:37:05;;;;;;;3.47;1.00;;;22.60;59.10;;;23.32;40.90;95128.66;5059973;28;20539;-62
2022/07/11 06:39:32;;;;;;;3.20;0.90;;;22.70;58.50;;;23.46;41.27;95132.94;5053588;28;20964;-60
2022/07/11 06:41:59;;;;;;;1.37;0.80;;;22.80;58.70;;;23.63;41.77;95135.94;5052782;28;20921;-57
2022/07/11 06:44:27;;;;;;;2.03;0.93;;;23.00;59.20;;;23.77;40.62;95129.47;5056829;28;20463;-59
2022/07/11 06:46:54;;;;;;;1.87;0.93;;;23.10;58.20;;;23.87;40.42;95128.19;5057836;28;20994;-60
2022/07/11 06:49:23;;;;;;;2.50;0.90;;;23.30;57.30;;;23.93;38.99;95122.75;5061079;28;20531;-58
2022/07/11 06:51:50;;;;;;;3.30;1.10;;;23.30;55.30;;;23.99;40.07;95121.91;5055693;28;20565;-63
2022/07/11 06:54:18;;;;;;;6.30;1.17;;;23.40;56.60;;;24.07;38.81;95125.38;5058937;28;20961;-57
2022/07/11 06:56:45;;;;;;;2.03;0.90;;;23.50;55.40;;;24.11;38.67;95123.91;5056068;28;20527;-63
2022/07/11 06:59:13;;;;;;;6.73;1.00;;;23.50;54.80;;;24.10;38.39;95124.94;5056279;28;20555;-63
2022/07/11 07:01:40;;;;;;;6.70;0.90;;;23.50;53.80;;;24.11;38.77;95123.91;5059598;28;20471;-59
2022/07/11 07:04:07;;;;;;;6.40;0.93;;;23.50;54.40;;;24.07;38.63;95122.69;5050444;28;20460;-59
2022/07/11 07:06:36;;;;;;;1.60;1.40;;;23.50;54.40;;;24.05;38.22;95124.78;5051140;28;20522;-64
2022/07/11 07:09:04;;;;;;;1.70;0.90;;;23.50;54.10;;;24.00;37.98;95117.38;5052379;28;20475;-59
2022/07/11 07:11:31;;;;;;;3.63;0.90;;;23.40;53.40;;;23.96;39.15;95125.03;5057958;28;20981;-57
2022/07/11 07:13:59;;;;;;;6.33;0.77;;;23.40;54.50;;;24.01;38.21;95124.38;5056975;28;20460;-62
2022/07/11 07:16:26;;;;;;;11.10;1.03;;;23.40;53.50;;;24.05;38.84;95119.41;5061685;28;21115;-57
2022/07/11 07:18:54;;;;;;;3.00;1.20;;;23.40;54.10;;;24.07;38.38;95123.50;5056103;28;20804;-58
2022/07/11 07:21:21;;;;;;;1.00;0.90;;;23.50;53.60;;;24.08;36.47;95114.41;5055214;28;20587;-59
2022/07/11 07:23:50;;;;;;;4.57;1.00;;;23.50;52.00;;;24.07;37.37;95114.63;5052375;28;20508;-63
2022/07/11 07:26:17;;;;;;;5.27;0.97;;;23.50;52.90;;;24.12;37.71;95120.16;5060355;28;20463;-64
2022/07/11 07:28:46;;;;;;;3.30;1.00;;;23.50;52.70;;;24.19;37.19;95110.19;5058093;28;20454;-63
2022/07/11 07:31:13;;;;;;;4.10;1.10;;;23.60;52.70;;;24.27;37.66;95115.28;5060028;28;20548;-58
2022/07/11 07:33:40;;;;;;;1.77;1.00;;;23.70;52.80;;;24.39;37.51;95110.03;5051538;28;20459;-59
2022/07/11 07:36:08;;;;;;;1.20;0.97;;;23.80;53.20;;;24.48;36.04;95102.50;5056500;28;20873;-64
2022/07/11 07:38:36;;;;;;;1.10;0.80;;;23.80;50.60;;;24.51;36.66;95110.13;5056566;28;20982;-58
2022/07/11 07:41:04;;;;;;;4.03;0.80;;;23.90;52.30;;;24.49;36.06;95104.97;5054307;28;20501;-59
2022/07/11 07:43:32;;;;;;;1.00;0.80;;;23.90;51.10;;;24.48;36.18;95107.88;5050405;28;20953;-63
2022/07/11 07:45:59;;;;;;;2.13;0.80;;;23.90;51.00;;;24.49;36.78;95106.81;5055369;28;20472;-65
2022/07/11 07:48:26;;;;;;;3.60;0.80;;;23.90;52.30;;;24.55;36.34;95110.50;5058542;28;20452;-58
2022/07/11 07:50:54;;;;;;;1.80;0.90;;;23.90;51.60;;;24.66;37.30;95116.03;5058094;28;20471;-63
2022/07/11 07:53:21;;;;;;;4.97;0.97;;;24.00;52.00;;;24.85;36.83;95126.81;5061868;28;20455;-64
2022/07/11 07:55:49;;;;;;;3.97;1.20;;;24.10;51.80;;;24.99;36.89;95132.88;5050519;28;20492;-62
2022/07/11 07:58:18;;;;;;;2.07;0.90;;;24.30;51.40;;;25.12;35.25;95126.50;5051582;28;20474;-57
2022/07/11 08:03:30;;;;;;;3.03;0.90;;;24.60;50.50;;;25.31;35.73;95149.69;5057993;28;20492;-64
2022/07/11 08:05:58;;;;;;;1.13;0.80;;;24.70;50.70;;;25.39;35.44;95141.34;5052894;28;20828;-62
2022/07/11 08:08:25;;;;;;;2.07;0.83;;;24.80;50.20;;;25.43;35.70;95136.31;5054814;28;20533;-62
2022/07/11 08:10:53;;;;;;;4.07;1.30;;;24.80;49.80;;;25.49;35.48;95142.69;5051436;28;20968;-64
2022/07/11 08:13:21;;;;;;;3.43;1.00;;;24.90;50.30;;;25.58;33.93;95139.44;5057914;28;20450;-65
2022/07/11 08:15:49;;;;;;;11.83;1.13;;;24.90;47.60;;;25.59;34.23;95140.25;5058946;28;20497;-62
2022/07/11 08:18:16;;;;;;;4.37;1.10;;;25.00;48.20;;;25.62;34.24;95144.38;5058235;28;20446;-64
2022/07/11 08:20:44;;;;;;;2.70;1.00;;;25.00;48.40;;;25.71;34.64;95149.19;5053542;28;20531;-57
2022/07/11 08:23:12;;;;;;;3.67;0.90;;;25.10;48.70;;;25.91;34.72;95142.72;5055943;28;20503;-59
2022/07/11 08:25:40;;;;;;;5.93;0.70;;;25.20;48.70;;;26.03;32.48;95130.13;5055458;28;20462;-63
2022/07/11 08:28:08;;;;;;;7.53;1.00;;;25.40;46.90;;;26.03;32.75;95146.31;5057380;28;20451;-62
2022/07/11 08:30:36;;;;;;;9.70;1.30;;;25.40;46.50;;;25.95;32.80;95136.66;5057686;28;20470;-59
2022/07/11 08:33:04;;;;;;;4.20;0.97;;;25.40;46.00;;;25.84;33.14;95140.13;5052337;28;20968;-63
2022/07/11 08:35:31;;;;;;;4.90;0.80;;;25.30;46.70;;;25.76;33.14;95146.66;5050401;28;20495;-64
2022/07/11 08:37:58;;;;;;;2.20;0.70;;;25.20;46.00;;;25.69;33.12;95135.16;5055016;28;20455;-59
2022/07/11 08:40:26;;;;;;;3.73;1.47;;;25.20;46.40;;;25.68;33.29;95149.66;5057603;28;20470;-58
2022/07/11 08:42:53;;;;;;;5.80;0.93;;;25.10;47.20;;;25.75;33.19;95141.50;5050340;28;20463;-64
2022/07/11 08:45:21;;;;;;;3.50;0.63;;;25.20;46.70;;;25.89;32.12;95134.06;5054705;28;20466;-64
2022/07/11 08:47:50;;;;;;;4.33;1.00;;;25.30;45.30;;;25.89;31.63;95139.44;5058458;28;20454;-58
2022/07/11 08:50:18;;;;;;;10.13;1.23;;;25.30;44.50;;;25.90;32.70;95133.00;5061116;28;20478;-60
2022/07/11 08:52:46;;;;;;;3.73;0.90;;;25.30;45.10;;;26.01;32.52;95134.94;5061072;28;20454;-59
2022/07/11 08:55:13;;;;;;;1.33;0.67;;;25.40;45.90;;;26.17;32.33;95135.34;5057192;28;20482;-64
2022/07/11 08:57:41;;;;;;;3.17;1.57;;;25.50;45.00;;;26.33;32.11;95136.53;5056770;28;20467;-64
2022/07/11 09:00:10;;;;;;;1.53;0.90;;;25.70;45.00;;;26.50;31.92;95128.59;5050508;28;20455;-63
2022/07/11 09:02:38;;;;;;;6.33;0.90;;;25.90;44.80;;;26.71;31.42;95133.44;5053677;28;20781;-63
2022/07/11 09:05:08;;;;;;;0.90;0.60;;;26.00;44.00;;;26.86;31.56;95115.94;5058191;28;20454;-62
2022/07/11 09:07:42;;;;;;;5.53;2.03;;;26.20;44.30;;;27.01;31.32;95130.59;5056078;28;20451;-65
2022/07/11 09:10:10;;;;;;;1.70;0.60;;;26.40;44.30;;;27.10;31.29;95127.53;5053379;28;20534;-63
2022/07/11 09:12:37;;;;;;;2.20;0.70;;;26.50;43.80;;;27.21;30.85;95144.78;5052710;28;20459;-63
2022/07/11 09:15:07;;;;;;;3.43;1.07;;;26.60;43.60;;;27.27;31.09;95139.25;5057023;28;20458;-60
2022/07/11 09:17:35;;;;;;;1.40;0.90;;;26.70;44.00;;;27.25;31.07;95133.28;5056809;28;20490;-59
2022/07/11 09:20:03;;;;;;;6.13;1.23;;;26.70;43.30;;;27.23;29.87;95137.25;5055728;28;20771;-64
2022/07/11 09:25:30;;;;;;;6.03;0.90;;;26.60;42.30;;;27.07;30.42;95144.22;5050552;28;20449;-59
2022/07/11 09:28:03;;;;;;;2.30;0.50;;;26.60;42.30;;;26.94;29.05;95123.66;5055006;28;20549;-65
2022/07/11 09:30:32;;;;;;;2.70;0.90;;;26.50;41.50;;;26.74;30.84;95145.63;5047948;28;20481;-60
2022/07/11 09:33:02;;;;;;;5.37;1.17;;;26.30;42.70;;;26.60;31.43;95147.69;5050413;28;20490;-60
2022/07/11 09:35:31;;;;;;;4.50;0.90;;;26.10;43.00;;;26.57;30.83;95145.47;5056790;28;20566;-62
2022/07/11 09:38:02;;;;;;;1.40;0.67;;;26.10;42.50;;;26.53;30.35;95138.91;5055536;28;20455;-60
2022/07/11 09:40:30;;;;;;;6.13;3.50;;;26.00;42.30;;;26.49;29.84;95133.13;5060875;28;20478;-63
2022/07/11 09:42:58;;;;;;;20.70;3.80;;;26.00;42.00;;;26.38;30.24;95144.75;5050685;28;20455;-59
2022/07/11 09:45:28;;;;;;;3.47;1.30;;;25.90;41.70;;;26.29;30.25;95134.31;5054313;28;20471;-61
2022/07/11 09:47:58;;;;;;;3.03;1.20;;;25.80;41.80;;;26.32;30.86;95127.63;5054822;28;20448;-59
2022/07/11 09:50:27;;;;;;;4.47;0.97;;;25.80;42.50;;;26.41;31.11;95128.91;5053099;28;20477;-58
2022/07/11 09:53:06;;;;;;;1.83;0.80;;;25.80;43.00;;;26.47;30.70;95137.94;5057711;28;20508;-64
2022/07/11 09:55:36;;;;;;;2.20;0.83;;;25.90;42.60;;;26.51;30.87;95132.91;5055829;28;20589;-64
2022/07/11 09:58:05;;;;;;;3.73;2.70;;;25.90;43.00;;;26.47;31.16;95130.66;5055625;28;20451;-62
2022/07/11 10:00:33;;;;;;;1.50;1.40;;;25.90;42.60;;;26.40;31.33;95126.44;5048508;28;20944;-63
2022/07/11 10:03:01;;;;;;;11.60;1.30;;;25.90;43.00;;;26.29;31.12;95145.09;5051853;28;21047;-58
2022/07/11 10:05:29;;;;;;;1.63;0.80;;;25.80;42.90;;;26.22;30.55;95146.25;5054986;28;20552;-63
2022/07/11 10:07:57;;;;;;;1.73;0.80;;;25.70;42.50;;;26.15;30.80;95137.44;5050373;28;20461;-59
2022/07/11 10:10:26;;;;;;;2.90;1.00;;;25.60;42.40;;;26.12;31.47;95142.25;5051706;28;20482;-62
2022/07/11 10:12:55;;;;;;;5.50;1.13;;;25.60;43.30;;;26.15;31.38;95142.81;5049731;28;20455;-63
2022/07/11 10:15:24;;;;;;;1.47;1.37;;;25.60;43.10;;;26.11;31.26;95147.84;5057245;28;20471;-58
2022/07/11 10:17:58;;;;;;;1.77;1.00;;;25.60;43.10;;;26.07;31.59;95144.81;5060722;28;21049;-64
2022/07/11 10:20:32;;;;;;;1.77;0.80;;;25.60;43.30;;;26.10;31.53;95143.50;5050644;28;20471;-63
2022/07/11 10:23:07;;;;;;;1.00;0.70;;;25.60;43.80;;;26.19;31.77;95154.78;5056534;28;20450;-59
2022/07/11 10:25:40;;;;;;;1.50;1.40;;;25.60;43.90;;;26.33;31.71;95141.94;5058243;28;20470;-58
2022/07/11 10:28:15;;;;;;;5.03;2.60;;;25.70;44.20;;;26.43;30.99;95134.06;5057742;28;20454;-64
2022/07/11 10:30:45;;;;;;;2.23;1.70;;;25.90;43.60;;;26.34;31.29;95139.00;5057438;28;20478;-63